sensor_id;sensor_type;location;lat;lon;timestamp;P1;durP1;ratioP1;P2;durP2;ratioP2
61204;SDS011;47068;55.780;37.520;2023-11-19T00:00:19;6.07;;;1.75;;
61204;SDS011;47068;55.780;37.520;2023-11-19T00:02:44;3.93;;;1.77;;
61204;SDS011;47068;55.780;37.520;2023-11-19T00:05:10;4.00;;;2.13;;
61204;SDS011;47068;55.780;37.520;2023-11-19T00:07:39;4.17;;;2.53;;
61204;SDS011;47068;55.780;37.520;2023-11-19T00:10:11;2.87;;;1.83;;
61204;SDS011;47068;55.780;37.520;2023-11-19T00:12:38;6.17;;;2.17;;
61204;SDS011;47068;55.780;37.520;2023-11-19T00:15:12;2.10;;;1.50;;
61204;SDS011;47068;55.780;37.520;2023-11-19T00:17:38;2.50;;;1.40;;
61204;SDS011;47068;55.780;37.520;2023-11-19T00:20:17;3.50;;;1.57;;
61204;SDS011;47068;55.780;37.520;2023-11-19T00:22:43;2.30;;;1.90;;
61204;SDS011;47068;55.780;37.520;2023-11-19T00:25:11;2.90;;;1.60;;
61204;SDS011;47068;55.780;37.520;2023-11-19T00:27:36;5.03;;;2.03;;
61204;SDS011;47068;55.780;37.520;2023-11-19T00:30:05;17.10;;;1.83;;
61204;SDS011;47068;55.780;37.520;2023-11-19T00:32:34;1.40;;;1.00;;
61204;SDS011;47068;55.780;37.520;2023-11-19T00:35:01;1.97;;;1.10;;
61204;SDS011;47068;55.780;37.520;2023-11-19T00:39:53;2.57;;;1.13;;
61204;SDS011;47068;55.780;37.520;2023-11-19T00:42:18;2.22;;;1.35;;
61204;SDS011;47068;55.780;37.520;2023-11-19T00:44:44;3.60;;;1.37;;
61204;SDS011;47068;55.780;37.520;2023-11-19T00:47:10;9.27;;;1.30;;
61204;SDS011;47068;55.780;37.520;2023-11-19T00:49:36;4.03;;;2.03;;
61204;SDS011;47068;55.780;37.520;2023-11-19T00:52:01;1.95;;;1.75;;
61204;SDS011;47068;55.780;37.520;2023-11-19T00:54:27;7.50;;;1.42;;
61204;SDS011;47068;55.780;37.520;2023-11-19T00:56:52;2.05;;;1.67;;
61204;SDS011;47068;55.780;37.520;2023-11-19T00:59:18;1.85;;;1.25;;
61204;SDS011;47068;55.780;37.520;2023-11-19T01:01:44;1.17;;;0.90;;
61204;SDS011;47068;55.780;37.520;2023-11-19T01:04:10;2.83;;;1.30;;
61204;SDS011;47068;55.780;37.520;2023-11-19T01:06:40;2.05;;;1.50;;
61204;SDS011;47068;55.780;37.520;2023-11-19T01:09:07;4.37;;;1.83;;
61204;SDS011;47068;55.780;37.520;2023-11-19T01:11:34;5.20;;;1.90;;
61204;SDS011;47068;55.780;37.520;2023-11-19T01:13:59;3.13;;;1.25;;
61204;SDS011;47068;55.780;37.520;2023-11-19T01:16:25;2.70;;;1.40;;
61204;SDS011;47068;55.780;37.520;2023-11-19T01:18:51;1.98;;;1.05;;
61204;SDS011;47068;55.780;37.520;2023-11-19T01:21:17;6.68;;;2.95;;
61204;SDS011;47068;55.780;37.520;2023-11-19T01:23:43;1.80;;;1.52;;
61204;SDS011;47068;55.780;37.520;2023-11-19T01:26:09;2.92;;;1.50;;
61204;SDS011;47068;55.780;37.520;2023-11-19T01:28:38;2.27;;;1.20;;
61204;SDS011;47068;55.780;37.520;2023-11-19T01:31:10;4.97;;;1.90;;
61204;SDS011;47068;55.780;37.520;2023-11-19T01:33:36;2.43;;;1.77;;
61204;SDS011;47068;55.780;37.520;2023-11-19T01:36:02;2.03;;;1.48;;
61204;SDS011;47068;55.780;37.520;2023-11-19T01:38:29;4.83;;;2.50;;
61204;SDS011;47068;55.780;37.520;2023-11-19T01:40:56;5.03;;;2.37;;
61204;SDS011;47068;55.780;37.520;2023-11-19T01:43:32;6.30;;;1.40;;
61204;SDS011;47068;55.780;37.520;2023-11-19T01:45:59;2.83;;;1.93;;
61204;SDS011;47068;55.780;37.520;2023-11-19T01:48:25;2.40;;;1.13;;
61204;SDS011;47068;55.780;37.520;2023-11-19T01:50:51;4.15;;;1.10;;
61204;SDS011;47068;55.780;37.520;2023-11-19T01:53:18;9.70;;;1.93;;
61204;SDS011;47068;55.780;37.520;2023-11-19T01:55:45;8.18;;;2.75;;
61204;SDS011;47068;55.780;37.520;2023-11-19T01:58:12;3.73;;;2.37;;
61204;SDS011;47068;55.780;37.520;2023-11-19T02:00:38;5.22;;;1.17;;
61204;SDS011;47068;55.780;37.520;2023-11-19T02:03:04;1.75;;;1.08;;
61204;SDS011;47068;55.780;37.520;2023-11-19T02:05:33;3.93;;;1.23;;
61204;SDS011;47068;55.780;37.520;2023-11-19T02:08:00;1.73;;;1.33;;
61204;SDS011;47068;55.780;37.520;2023-11-19T02:10:26;2.78;;;1.63;;
61204;SDS011;47068;55.780;37.520;2023-11-19T02:12:51;2.55;;;1.30;;
61204;SDS011;47068;55.780;37.520;2023-11-19T02:15:17;1.75;;;0.60;;
61204;SDS011;47068;55.780;37.520;2023-11-19T02:17:47;10.33;;;1.63;;
61204;SDS011;47068;55.780;37.520;2023-11-19T02:20:12;2.67;;;1.25;;
61204;SDS011;47068;55.780;37.520;2023-11-19T02:22:40;3.37;;;2.10;;
61204;SDS011;47068;55.780;37.520;2023-11-19T02:25:12;4.88;;;1.58;;
61204;SDS011;47068;55.780;37.520;2023-11-19T02:27:51;5.87;;;2.70;;
61204;SDS011;47068;55.780;37.520;2023-11-19T02:30:22;3.93;;;1.77;;
61204;SDS011;47068;55.780;37.520;2023-11-19T02:32:54;2.63;;;1.20;;
61204;SDS011;47068;55.780;37.520;2023-11-19T02:35:26;4.23;;;2.03;;
61204;SDS011;47068;55.780;37.520;2023-11-19T02:37:53;5.60;;;2.37;;
61204;SDS011;47068;55.780;37.520;2023-11-19T02:40:19;6.13;;;3.67;;
61204;SDS011;47068;55.780;37.520;2023-11-19T02:42:45;6.30;;;3.67;;
61204;SDS011;47068;55.780;37.520;2023-11-19T02:45:10;2.55;;;2.30;;
61204;SDS011;47068;55.780;37.520;2023-11-19T02:47:42;8.07;;;3.03;;
61204;SDS011;47068;55.780;37.520;2023-11-19T02:50:09;6.27;;;4.30;;
61204;SDS011;47068;55.780;37.520;2023-11-19T02:52:44;5.67;;;3.43;;
61204;SDS011;47068;55.780;37.520;2023-11-19T02:55:10;13.73;;;4.77;;
61204;SDS011;47068;55.780;37.520;2023-11-19T02:57:40;6.63;;;2.43;;
61204;SDS011;47068;55.780;37.520;2023-11-19T03:00:16;18.33;;;2.37;;
61204;SDS011;47068;55.780;37.520;2023-11-19T03:02:42;1.70;;;1.43;;
61204;SDS011;47068;55.780;37.520;2023-11-19T03:05:13;7.77;;;2.37;;
61204;SDS011;47068;55.780;37.520;2023-11-19T03:07:42;3.27;;;1.43;;
61204;SDS011;47068;55.780;37.520;2023-11-19T03:10:09;4.50;;;2.90;;
61204;SDS011;47068;55.780;37.520;2023-11-19T03:12:38;1.70;;;1.30;;
61204;SDS011;47068;55.780;37.520;2023-11-19T03:15:04;6.10;;;2.45;;
61204;SDS011;47068;55.780;37.520;2023-11-19T03:17:30;5.50;;;2.55;;
61204;SDS011;47068;55.780;37.520;2023-11-19T03:19:56;7.05;;;2.50;;
61204;SDS011;47068;55.780;37.520;2023-11-19T03:22:21;4.00;;;1.90;;
61204;SDS011;47068;55.780;37.520;2023-11-19T03:24:47;3.47;;;2.33;;
61204;SDS011;47068;55.780;37.520;2023-11-19T03:27:15;4.37;;;1.63;;
61204;SDS011;47068;55.780;37.520;2023-11-19T03:29:41;74.73;;;41.13;;
61204;SDS011;47068;55.780;37.520;2023-11-19T03:32:06;30.98;;;28.30;;
61204;SDS011;47068;55.780;37.520;2023-11-19T03:34:32;40.70;;;36.83;;
61204;SDS011;47068;55.780;37.520;2023-11-19T03:36:57;20.57;;;18.70;;
61204;SDS011;47068;55.780;37.520;2023-11-19T03:39:23;12.07;;;10.10;;
61204;SDS011;47068;55.780;37.520;2023-11-19T03:41:50;23.23;;;7.27;;
61204;SDS011;47068;55.780;37.520;2023-11-19T03:44:15;20.23;;;18.58;;
61204;SDS011;47068;55.780;37.520;2023-11-19T03:46:41;61.65;;;48.80;;
61204;SDS011;47068;55.780;37.520;2023-11-19T03:49:07;219.93;;;121.80;;
61204;SDS011;47068;55.780;37.520;2023-11-19T03:51:32;55.58;;;46.08;;
61204;SDS011;47068;55.780;37.520;2023-11-19T03:53:59;64.83;;;48.20;;
61204;SDS011;47068;55.780;37.520;2023-11-19T03:56:25;216.75;;;106.05;;
61204;SDS011;47068;55.780;37.520;2023-11-19T04:01:17;328.43;;;141.10;;
61204;SDS011;47068;55.780;37.520;2023-11-19T04:03:43;318.98;;;130.65;;
61204;SDS011;47068;55.780;37.520;2023-11-19T04:06:09;132.25;;;63.25;;
61204;SDS011;47068;55.780;37.520;2023-11-19T04:08:35;113.47;;;57.80;;
61204;SDS011;47068;55.780;37.520;2023-11-19T04:11:01;118.68;;;59.78;;
61204;SDS011;47068;55.780;37.520;2023-11-19T04:13:30;140.67;;;63.80;;
61204;SDS011;47068;55.780;37.520;2023-11-19T04:15:55;127.57;;;60.50;;
61204;SDS011;47068;55.780;37.520;2023-11-19T04:18:21;144.02;;;63.42;;
61204;SDS011;47068;55.780;37.520;2023-11-19T04:20:46;150.67;;;64.60;;
61204;SDS011;47068;55.780;37.520;2023-11-19T04:23:12;166.70;;;71.13;;
61204;SDS011;47068;55.780;37.520;2023-11-19T04:25:37;178.17;;;72.53;;
61204;SDS011;47068;55.780;37.520;2023-11-19T04:28:03;175.10;;;69.25;;
61204;SDS011;47068;55.780;37.520;2023-11-19T04:30:29;177.07;;;70.80;;
61204;SDS011;47068;55.780;37.520;2023-11-19T04:32:56;186.40;;;71.87;;
61204;SDS011;47068;55.780;37.520;2023-11-19T04:35:22;169.77;;;69.97;;
61204;SDS011;47068;55.780;37.520;2023-11-19T04:37:48;173.10;;;70.43;;
61204;SDS011;47068;55.780;37.520;2023-11-19T04:40:14;199.70;;;76.82;;
61204;SDS011;47068;55.780;37.520;2023-11-19T04:42:39;189.63;;;73.03;;
61204;SDS011;47068;55.780;37.520;2023-11-19T04:45:08;200.37;;;82.97;;
61204;SDS011;47068;55.780;37.520;2023-11-19T04:47:35;221.47;;;80.70;;
61204;SDS011;47068;55.780;37.520;2023-11-19T04:50:01;247.48;;;96.03;;
61204;SDS011;47068;55.780;37.520;2023-11-19T04:54:53;387.30;;;154.77;;
61204;SDS011;47068;55.780;37.520;2023-11-19T04:57:18;365.38;;;140.35;;
61204;SDS011;47068;55.780;37.520;2023-11-19T04:59:44;394.40;;;144.70;;
61204;SDS011;47068;55.780;37.520;2023-11-19T05:02:10;146.75;;;69.70;;
61204;SDS011;47068;55.780;37.520;2023-11-19T05:04:35;114.63;;;62.75;;
61204;SDS011;47068;55.780;37.520;2023-11-19T05:07:02;103.37;;;54.90;;
61204;SDS011;47068;55.780;37.520;2023-11-19T05:09:28;95.70;;;56.25;;
61204;SDS011;47068;55.780;37.520;2023-11-19T05:11:53;166.57;;;68.97;;
61204;SDS011;47068;55.780;37.520;2023-11-19T05:14:19;188.57;;;75.70;;
61204;SDS011;47068;55.780;37.520;2023-11-19T05:16:45;196.55;;;77.07;;
61204;SDS011;47068;55.780;37.520;2023-11-19T05:19:11;175.93;;;70.38;;
61204;SDS011;47068;55.780;37.520;2023-11-19T05:21:36;131.40;;;63.45;;
61204;SDS011;47068;55.780;37.520;2023-11-19T05:24:02;138.70;;;65.63;;
61204;SDS011;47068;55.780;37.520;2023-11-19T05:26:31;150.23;;;70.57;;
61204;SDS011;47068;55.780;37.520;2023-11-19T05:28:56;185.80;;;74.20;;
61204;SDS011;47068;55.780;37.520;2023-11-19T05:31:22;143.52;;;67.38;;
61204;SDS011;47068;55.780;37.520;2023-11-19T05:33:47;161.90;;;71.22;;
61204;SDS011;47068;55.780;37.520;2023-11-19T05:36:13;226.88;;;79.47;;
61204;SDS011;47068;55.780;37.520;2023-11-19T05:38:39;212.93;;;80.50;;
61204;SDS011;47068;55.780;37.520;2023-11-19T05:41:05;185.48;;;74.78;;
61204;SDS011;47068;55.780;37.520;2023-11-19T05:43:31;171.20;;;71.88;;
61204;SDS011;47068;55.780;37.520;2023-11-19T05:45:57;180.15;;;74.68;;
61204;SDS011;47068;55.780;37.520;2023-11-19T05:48:24;209.38;;;78.40;;
61204;SDS011;47068;55.780;37.520;2023-11-19T05:50:51;193.70;;;77.00;;
61204;SDS011;47068;55.780;37.520;2023-11-19T05:53:17;212.63;;;78.88;;
61204;SDS011;47068;55.780;37.520;2023-11-19T05:55:42;216.50;;;83.50;;
61204;SDS011;47068;55.780;37.520;2023-11-19T05:58:19;237.10;;;84.83;;
61204;SDS011;47068;55.780;37.520;2023-11-19T06:00:47;208.37;;;82.80;;
61204;SDS011;47068;55.780;37.520;2023-11-19T06:03:14;164.27;;;73.10;;
61204;SDS011;47068;55.780;37.520;2023-11-19T06:05:39;171.23;;;74.67;;
61204;SDS011;47068;55.780;37.520;2023-11-19T06:08:05;142.77;;;70.37;;
61204;SDS011;47068;55.780;37.520;2023-11-19T06:10:32;139.37;;;68.63;;
61204;SDS011;47068;55.780;37.520;2023-11-19T06:12:58;138.20;;;70.22;;
61204;SDS011;47068;55.780;37.520;2023-11-19T06:15:28;147.17;;;71.47;;
61204;SDS011;47068;55.780;37.520;2023-11-19T06:17:53;65.50;;;52.67;;
61204;SDS011;47068;55.780;37.520;2023-11-19T06:22:45;83.10;;;53.63;;
61204;SDS011;47068;55.780;37.520;2023-11-19T06:25:11;86.20;;;54.70;;
61204;SDS011;47068;55.780;37.520;2023-11-19T06:27:40;96.87;;;57.67;;
61204;SDS011;47068;55.780;37.520;2023-11-19T06:32:31;92.43;;;55.27;;
61204;SDS011;47068;55.780;37.520;2023-11-19T06:34:57;93.20;;;57.28;;
61204;SDS011;47068;55.780;37.520;2023-11-19T06:37:23;86.43;;;54.87;;
61204;SDS011;47068;55.780;37.520;2023-11-19T06:39:48;100.63;;;60.63;;
61204;SDS011;47068;55.780;37.520;2023-11-19T06:42:14;131.53;;;66.27;;
61204;SDS011;47068;55.780;37.520;2023-11-19T06:44:39;90.55;;;57.92;;
61204;SDS011;47068;55.780;37.520;2023-11-19T06:47:05;108.53;;;62.63;;
61204;SDS011;47068;55.780;37.520;2023-11-19T06:51:56;241.50;;;86.87;;
61204;SDS011;47068;55.780;37.520;2023-11-19T06:54:22;258.52;;;91.97;;
61204;SDS011;47068;55.780;37.520;2023-11-19T06:56:48;207.93;;;81.67;;
61204;SDS011;47068;55.780;37.520;2023-11-19T06:59:13;254.80;;;90.28;;
61204;SDS011;47068;55.780;37.520;2023-11-19T07:01:39;227.93;;;93.53;;
61204;SDS011;47068;55.780;37.520;2023-11-19T07:04:10;197.20;;;81.13;;
61204;SDS011;47068;55.780;37.520;2023-11-19T07:06:36;241.70;;;85.77;;
61204;SDS011;47068;55.780;37.520;2023-11-19T07:09:02;245.30;;;88.18;;
61204;SDS011;47068;55.780;37.520;2023-11-19T07:11:37;244.53;;;88.50;;
61204;SDS011;47068;55.780;37.520;2023-11-19T07:14:03;240.33;;;87.60;;
61204;SDS011;47068;55.780;37.520;2023-11-19T07:16:29;239.88;;;85.18;;
61204;SDS011;47068;55.780;37.520;2023-11-19T07:18:55;240.93;;;88.38;;
61204;SDS011;47068;55.780;37.520;2023-11-19T07:21:21;264.48;;;91.55;;
61204;SDS011;47068;55.780;37.520;2023-11-19T07:23:46;216.43;;;84.35;;
61204;SDS011;47068;55.780;37.520;2023-11-19T07:26:12;221.83;;;85.10;;
61204;SDS011;47068;55.780;37.520;2023-11-19T07:28:37;212.80;;;83.63;;
61204;SDS011;47068;55.780;37.520;2023-11-19T07:31:05;192.00;;;79.80;;
61204;SDS011;47068;55.780;37.520;2023-11-19T07:33:33;235.77;;;86.67;;
61204;SDS011;47068;55.780;37.520;2023-11-19T07:35:58;294.77;;;96.93;;
61204;SDS011;47068;55.780;37.520;2023-11-19T07:38:24;308.38;;;97.15;;
61204;SDS011;47068;55.780;37.520;2023-11-19T07:40:50;311.17;;;97.67;;
61204;SDS011;47068;55.780;37.520;2023-11-19T07:43:15;365.60;;;105.93;;
61204;SDS011;47068;55.780;37.520;2023-11-19T07:45:41;393.02;;;115.63;;
61204;SDS011;47068;55.780;37.520;2023-11-19T07:48:09;357.60;;;109.07;;
61204;SDS011;47068;55.780;37.520;2023-11-19T07:50:35;389.13;;;113.05;;
61204;SDS011;47068;55.780;37.520;2023-11-19T07:53:00;288.20;;;96.15;;
61204;SDS011;47068;55.780;37.520;2023-11-19T07:55:29;333.03;;;103.33;;
61204;SDS011;47068;55.780;37.520;2023-11-19T07:57:54;309.42;;;101.80;;
61204;SDS011;47068;55.780;37.520;2023-11-19T08:00:20;351.35;;;103.78;;
61204;SDS011;47068;55.780;37.520;2023-11-19T08:02:46;337.88;;;100.20;;
61204;SDS011;47068;55.780;37.520;2023-11-19T08:05:11;291.27;;;93.53;;
61204;SDS011;47068;55.780;37.520;2023-11-19T08:07:37;276.73;;;91.45;;
61204;SDS011;47068;55.780;37.520;2023-11-19T08:10:04;302.50;;;96.23;;
61204;SDS011;47068;55.780;37.520;2023-11-19T08:12:30;344.30;;;106.87;;
61204;SDS011;47068;55.780;37.520;2023-11-19T08:14:56;325.92;;;99.00;;
61204;SDS011;47068;55.780;37.520;2023-11-19T08:17:23;336.27;;;102.00;;
61204;SDS011;47068;55.780;37.520;2023-11-19T08:19:49;272.80;;;91.53;;
61204;SDS011;47068;55.780;37.520;2023-11-19T08:22:16;281.30;;;95.80;;
61204;SDS011;47068;55.780;37.520;2023-11-19T08:24:44;341.93;;;103.83;;
61204;SDS011;47068;55.780;37.520;2023-11-19T08:27:10;299.25;;;93.78;;
61204;SDS011;47068;55.780;37.520;2023-11-19T08:29:36;248.27;;;89.47;;
61204;SDS011;47068;55.780;37.520;2023-11-19T08:32:01;245.88;;;90.78;;
61204;SDS011;47068;55.780;37.520;2023-11-19T08:34:31;2.63;;;1.93;;
61204;SDS011;47068;55.780;37.520;2023-11-19T08:36:59;3.03;;;1.93;;
61204;SDS011;47068;55.780;37.520;2023-11-19T08:39:24;5.55;;;2.72;;
61204;SDS011;47068;55.780;37.520;2023-11-19T08:41:50;7.15;;;2.78;;
61204;SDS011;47068;55.780;37.520;2023-11-19T08:44:16;3.42;;;1.63;;
61204;SDS011;47068;55.780;37.520;2023-11-19T08:46:51;3.25;;;1.88;;
61204;SDS011;47068;55.780;37.520;2023-11-19T08:49:16;7.40;;;3.13;;
61204;SDS011;47068;55.780;37.520;2023-11-19T08:51:42;10.05;;;3.45;;
61204;SDS011;47068;55.780;37.520;2023-11-19T08:54:08;222.32;;;86.85;;
61204;SDS011;47068;55.780;37.520;2023-11-19T08:56:34;243.80;;;88.30;;
61204;SDS011;47068;55.780;37.520;2023-11-19T09:01:26;227.47;;;83.47;;
61204;SDS011;47068;55.780;37.520;2023-11-19T09:03:51;251.02;;;86.60;;
61204;SDS011;47068;55.780;37.520;2023-11-19T09:06:17;279.70;;;92.53;;
61204;SDS011;47068;55.780;37.520;2023-11-19T09:08:43;259.40;;;90.95;;
61204;SDS011;47068;55.780;37.520;2023-11-19T09:11:08;316.75;;;98.63;;
61204;SDS011;47068;55.780;37.520;2023-11-19T09:13:37;321.38;;;98.15;;
61204;SDS011;47068;55.780;37.520;2023-11-19T09:16:03;304.47;;;93.03;;
61204;SDS011;47068;55.780;37.520;2023-11-19T09:18:29;2.45;;;1.90;;
61204;SDS011;47068;55.780;37.520;2023-11-19T09:20:55;3.87;;;1.97;;
61204;SDS011;47068;55.780;37.520;2023-11-19T09:23:21;344.15;;;103.03;;
61204;SDS011;47068;55.780;37.520;2023-11-19T09:25:46;314.08;;;100.53;;
61204;SDS011;47068;55.780;37.520;2023-11-19T09:28:12;4.57;;;2.73;;
61204;SDS011;47068;55.780;37.520;2023-11-19T09:30:39;5.10;;;1.73;;
61204;SDS011;47068;55.780;37.520;2023-11-19T09:33:04;6.13;;;3.17;;
61204;SDS011;47068;55.780;37.520;2023-11-19T09:35:30;5.07;;;1.85;;
61204;SDS011;47068;55.780;37.520;2023-11-19T09:37:56;6.25;;;2.42;;
61204;SDS011;47068;55.780;37.520;2023-11-19T09:40:21;4.60;;;2.80;;
61204;SDS011;47068;55.780;37.520;2023-11-19T09:42:47;6.57;;;2.20;;
61204;SDS011;47068;55.780;37.520;2023-11-19T09:45:14;5.25;;;1.83;;
61204;SDS011;47068;55.780;37.520;2023-11-19T09:47:42;8.50;;;3.50;;
61204;SDS011;47068;55.780;37.520;2023-11-19T09:50:10;3.67;;;1.57;;
61204;SDS011;47068;55.780;37.520;2023-11-19T09:52:43;5.03;;;2.27;;
61204;SDS011;47068;55.780;37.520;2023-11-19T09:55:10;5.80;;;2.47;;
61204;SDS011;47068;55.780;37.520;2023-11-19T09:57:36;1.92;;;1.38;;
61204;SDS011;47068;55.780;37.520;2023-11-19T10:00:04;7.50;;;2.27;;
61204;SDS011;47068;55.780;37.520;2023-11-19T10:02:31;5.10;;;2.67;;
61204;SDS011;47068;55.780;37.520;2023-11-19T10:04:59;3.77;;;2.20;;
61204;SDS011;47068;55.780;37.520;2023-11-19T10:07:27;3.50;;;1.83;;
61204;SDS011;47068;55.780;37.520;2023-11-19T10:09:52;7.82;;;2.83;;
61204;SDS011;47068;55.780;37.520;2023-11-19T10:12:18;8.23;;;1.50;;
61204;SDS011;47068;55.780;37.520;2023-11-19T10:14:43;2.73;;;2.40;;
61204;SDS011;47068;55.780;37.520;2023-11-19T10:17:11;4.67;;;2.03;;
61204;SDS011;47068;55.780;37.520;2023-11-19T10:19:36;1.50;;;0.88;;
61204;SDS011;47068;55.780;37.520;2023-11-19T10:22:05;4.90;;;2.47;;
61204;SDS011;47068;55.780;37.520;2023-11-19T10:24:31;8.82;;;3.05;;
61204;SDS011;47068;55.780;37.520;2023-11-19T10:26:59;3.27;;;1.60;;
61204;SDS011;47068;55.780;37.520;2023-11-19T10:29:25;5.30;;;2.17;;
61204;SDS011;47068;55.780;37.520;2023-11-19T10:31:56;5.47;;;2.07;;
61204;SDS011;47068;55.780;37.520;2023-11-19T10:34:26;2.23;;;1.40;;
61204;SDS011;47068;55.780;37.520;2023-11-19T10:36:52;300.47;;;98.20;;
61204;SDS011;47068;55.780;37.520;2023-11-19T10:39:18;336.92;;;103.97;;
61204;SDS011;47068;55.780;37.520;2023-11-19T10:41:43;462.08;;;173.48;;
61204;SDS011;47068;55.780;37.520;2023-11-19T10:44:10;326.52;;;104.35;;
61204;SDS011;47068;55.780;37.520;2023-11-19T10:46:42;336.97;;;100.77;;
61204;SDS011;47068;55.780;37.520;2023-11-19T10:49:08;310.37;;;88.13;;
61204;SDS011;47068;55.780;37.520;2023-11-19T10:51:34;372.88;;;111.75;;
61204;SDS011;47068;55.780;37.520;2023-11-19T10:56:33;357.33;;;102.83;;
61204;SDS011;47068;55.780;37.520;2023-11-19T11:01:26;374.10;;;107.57;;
61204;SDS011;47068;55.780;37.520;2023-11-19T11:03:59;416.77;;;119.47;;
61204;SDS011;47068;55.780;37.520;2023-11-19T11:06:26;254.53;;;86.43;;
61204;SDS011;47068;55.780;37.520;2023-11-19T11:08:52;23.33;;;8.13;;
61204;SDS011;47068;55.780;37.520;2023-11-19T11:11:20;305.10;;;94.50;;
61204;SDS011;47068;55.780;37.520;2023-11-19T11:13:47;359.30;;;103.80;;
61204;SDS011;47068;55.780;37.520;2023-11-19T11:16:18;387.43;;;112.60;;
61204;SDS011;47068;55.780;37.520;2023-11-19T11:18:47;431.47;;;120.10;;
61204;SDS011;47068;55.780;37.520;2023-11-19T11:21:17;446.27;;;123.93;;
61204;SDS011;47068;55.780;37.520;2023-11-19T11:26:53;3.23;;;1.73;;
61204;SDS011;47068;55.780;37.520;2023-11-19T11:29:47;1.90;;;1.57;;
61204;SDS011;47068;55.780;37.520;2023-11-19T11:35:19;3.73;;;2.37;;
61204;SDS011;47068;55.780;37.520;2023-11-19T11:38:09;6.07;;;2.73;;
61204;SDS011;47068;55.780;37.520;2023-11-19T11:40:34;3.45;;;1.67;;
61204;SDS011;47068;55.780;37.520;2023-11-19T11:45:36;6.80;;;2.50;;
61204;SDS011;47068;55.780;37.520;2023-11-19T11:48:04;3.40;;;1.85;;
61204;SDS011;47068;55.780;37.520;2023-11-19T11:53:34;3.67;;;1.23;;
61204;SDS011;47068;55.780;37.520;2023-11-19T11:58:31;6.95;;;2.35;;
61204;SDS011;47068;55.780;37.520;2023-11-19T12:00:59;2.53;;;1.83;;
61204;SDS011;47068;55.780;37.520;2023-11-19T12:03:27;3.63;;;1.70;;
61204;SDS011;47068;55.780;37.520;2023-11-19T12:05:54;3.03;;;1.67;;
61204;SDS011;47068;55.780;37.520;2023-11-19T12:08:24;2.80;;;1.45;;
61204;SDS011;47068;55.780;37.520;2023-11-19T12:10:51;6.47;;;1.87;;
61204;SDS011;47068;55.780;37.520;2023-11-19T12:13:18;8.60;;;2.03;;
61204;SDS011;47068;55.780;37.520;2023-11-19T12:18:30;2.53;;;1.30;;
61204;SDS011;47068;55.780;37.520;2023-11-19T12:20:57;4.17;;;1.63;;
61204;SDS011;47068;55.780;37.520;2023-11-19T12:23:30;2.47;;;1.70;;
61204;SDS011;47068;55.780;37.520;2023-11-19T12:25:56;2.37;;;1.63;;
61204;SDS011;47068;55.780;37.520;2023-11-19T12:28:22;3.50;;;1.87;;
61204;SDS011;47068;55.780;37.520;2023-11-19T12:30:49;5.30;;;2.37;;
61204;SDS011;47068;55.780;37.520;2023-11-19T12:33:16;2.97;;;1.67;;
61204;SDS011;47068;55.780;37.520;2023-11-19T12:35:44;3.22;;;1.95;;
61204;SDS011;47068;55.780;37.520;2023-11-19T12:40:46;6.07;;;2.50;;
61204;SDS011;47068;55.780;37.520;2023-11-19T12:43:20;3.38;;;1.70;;
61204;SDS011;47068;55.780;37.520;2023-11-19T12:45:47;1.87;;;1.30;;
61204;SDS011;47068;55.780;37.520;2023-11-19T12:48:13;4.85;;;2.35;;
61204;SDS011;47068;55.780;37.520;2023-11-19T12:50:54;328.38;;;119.80;;
61204;SDS011;47068;55.780;37.520;2023-11-19T12:53:22;4.63;;;1.87;;
61204;SDS011;47068;55.780;37.520;2023-11-19T12:55:49;300.20;;;93.93;;
61204;SDS011;47068;55.780;37.520;2023-11-19T12:58:35;228.17;;;67.00;;
61204;SDS011;47068;55.780;37.520;2023-11-19T13:01:02;75.23;;;45.40;;
61204;SDS011;47068;55.780;37.520;2023-11-19T13:03:32;186.13;;;60.13;;
61204;SDS011;47068;55.780;37.520;2023-11-19T13:06:05;3.43;;;1.80;;
61204;SDS011;47068;55.780;37.520;2023-11-19T13:11:08;7.57;;;2.50;;
61204;SDS011;47068;55.780;37.520;2023-11-19T13:13:53;4.45;;;2.05;;
61204;SDS011;47068;55.780;37.520;2023-11-19T13:16:19;5.03;;;1.73;;
61204;SDS011;47068;55.780;37.520;2023-11-19T13:18:45;11.50;;;2.20;;
61204;SDS011;47068;55.780;37.520;2023-11-19T13:21:10;4.18;;;1.25;;
61204;SDS011;47068;55.780;37.520;2023-11-19T13:23:35;3.72;;;1.88;;
61204;SDS011;47068;55.780;37.520;2023-11-19T13:26:01;2.30;;;1.55;;
61204;SDS011;47068;55.780;37.520;2023-11-19T13:28:29;3.50;;;1.77;;
61204;SDS011;47068;55.780;37.520;2023-11-19T13:30:54;1.42;;;1.30;;
61204;SDS011;47068;55.780;37.520;2023-11-19T13:33:20;2.42;;;1.20;;
61204;SDS011;47068;55.780;37.520;2023-11-19T13:35:45;2.28;;;1.63;;
61204;SDS011;47068;55.780;37.520;2023-11-19T13:38:11;1.65;;;1.30;;
61204;SDS011;47068;55.780;37.520;2023-11-19T13:40:36;2.33;;;1.20;;
61204;SDS011;47068;55.780;37.520;2023-11-19T13:43:01;4.80;;;2.60;;
61204;SDS011;47068;55.780;37.520;2023-11-19T13:45:27;3.47;;;1.98;;
61204;SDS011;47068;55.780;37.520;2023-11-19T13:47:53;468.07;;;168.17;;
61204;SDS011;47068;55.780;37.520;2023-11-19T13:50:18;181.45;;;83.35;;
61204;SDS011;47068;55.780;37.520;2023-11-19T13:52:44;2.47;;;1.65;;
61204;SDS011;47068;55.780;37.520;2023-11-19T13:55:12;263.10;;;93.47;;
61204;SDS011;47068;55.780;37.520;2023-11-19T13:57:38;364.13;;;110.53;;
61204;SDS011;47068;55.780;37.520;2023-11-19T14:00:06;263.27;;;100.00;;
61204;SDS011;47068;55.780;37.520;2023-11-19T14:02:44;2.80;;;1.50;;
61204;SDS011;47068;55.780;37.520;2023-11-19T14:05:15;6.33;;;2.20;;
61204;SDS011;47068;55.780;37.520;2023-11-19T14:07:42;5.67;;;3.13;;
61204;SDS011;47068;55.780;37.520;2023-11-19T14:12:36;6.20;;;1.38;;
61204;SDS011;47068;55.780;37.520;2023-11-19T14:15:05;3.77;;;1.87;;
61204;SDS011;47068;55.780;37.520;2023-11-19T14:17:32;8.23;;;1.67;;
61204;SDS011;47068;55.780;37.520;2023-11-19T14:19:59;6.93;;;3.30;;
61204;SDS011;47068;55.780;37.520;2023-11-19T14:22:24;5.20;;;2.05;;
61204;SDS011;47068;55.780;37.520;2023-11-19T14:24:50;2.97;;;1.67;;
61204;SDS011;47068;55.780;37.520;2023-11-19T14:27:15;8.00;;;3.40;;
61204;SDS011;47068;55.780;37.520;2023-11-19T14:29:44;2.50;;;1.40;;
61204;SDS011;47068;55.780;37.520;2023-11-19T14:32:10;4.65;;;2.20;;
61204;SDS011;47068;55.780;37.520;2023-11-19T14:34:36;4.90;;;1.73;;
61204;SDS011;47068;55.780;37.520;2023-11-19T14:37:01;4.15;;;2.15;;
61204;SDS011;47068;55.780;37.520;2023-11-19T14:39:27;2.78;;;1.48;;
61204;SDS011;47068;55.780;37.520;2023-11-19T14:41:56;2.80;;;1.93;;
61204;SDS011;47068;55.780;37.520;2023-11-19T14:44:25;3.83;;;1.60;;
61204;SDS011;47068;55.780;37.520;2023-11-19T14:46:52;3.80;;;1.95;;
61204;SDS011;47068;55.780;37.520;2023-11-19T14:49:17;11.43;;;2.22;;
61204;SDS011;47068;55.780;37.520;2023-11-19T14:51:43;5.15;;;1.90;;
61204;SDS011;47068;55.780;37.520;2023-11-19T14:54:08;3.25;;;2.03;;
61204;SDS011;47068;55.780;37.520;2023-11-19T14:56:34;1.43;;;1.00;;
61204;SDS011;47068;55.780;37.520;2023-11-19T14:58:59;6.38;;;1.60;;
61204;SDS011;47068;55.780;37.520;2023-11-19T15:01:25;4.00;;;2.60;;